sensor_id;sensor_type;location;lat;lon;timestamp;pressure;altitude;pressure_sealevel;temperature;humidity
37170;BME280;23062;13.952;100.608;2023-02-16T00:03:38;1014.10;;;28.76;63.80
37170;BME280;23062;13.952;100.608;2023-02-16T00:08:04;1014.20;;;28.77;63.70
37170;BME280;23062;13.952;100.608;2023-02-16T00:12:30;1014.26;;;28.82;63.88
37170;BME280;23062;13.952;100.608;2023-02-16T00:17:13;1014.32;;;28.82;63.97
37170;BME280;23062;13.952;100.608;2023-02-16T00:21:39;1014.45;;;28.83;64.00
37170;BME280;23062;13.952;100.608;2023-02-16T00:26:05;1014.48;;;28.82;64.15
37170;BME280;23062;13.952;100.608;2023-02-16T00:30:35;1014.55;;;28.81;64.20
37170;BME280;23062;13.952;100.608;2023-02-16T00:35:01;1014.61;;;28.80;64.23
37170;BME280;23062;13.952;100.608;2023-02-16T00:39:28;1014.69;;;28.76;64.76
37170;BME280;23062;13.952;100.608;2023-02-16T00:43:53;1014.76;;;28.76;64.62
37170;BME280;23062;13.952;100.608;2023-02-16T00:48:23;1014.80;;;28.76;64.78
37170;BME280;23062;13.952;100.608;2023-02-16T00:52:49;1014.83;;;28.74;65.01
37170;BME280;23062;13.952;100.608;2023-02-16T00:57:15;1014.89;;;28.71;65.16
37170;BME280;23062;13.952;100.608;2023-02-16T01:01:42;1014.97;;;28.69;65.41
37170;BME280;23062;13.952;100.608;2023-02-16T01:06:08;1015.06;;;28.71;65.36
37170;BME280;23062;13.952;100.608;2023-02-16T01:10:53;1015.07;;;28.69;65.37
37170;BME280;23062;13.952;100.608;2023-02-16T01:15:32;1015.19;;;28.67;65.51
37170;BME280;23062;13.952;100.608;2023-02-16T01:19:58;1015.23;;;28.69;65.85
37170;BME280;23062;13.952;100.608;2023-02-16T01:24:24;1015.30;;;28.71;65.66
37170;BME280;23062;13.952;100.608;2023-02-16T01:28:49;1015.37;;;28.72;65.97
37170;BME280;23062;13.952;100.608;2023-02-16T01:33:14;1015.48;;;28.70;66.22
37170;BME280;23062;13.952;100.608;2023-02-16T01:37:41;1015.53;;;28.70;66.14
37170;BME280;23062;13.952;100.608;2023-02-16T01:42:12;1015.60;;;28.70;65.80
37170;BME280;23062;13.952;100.608;2023-02-16T01:46:53;1015.69;;;28.69;66.23
37170;BME280;23062;13.952;100.608;2023-02-16T01:51:20;1015.82;;;28.72;66.11
37170;BME280;23062;13.952;100.608;2023-02-16T01:55:46;1015.92;;;28.73;66.10
37170;BME280;23062;13.952;100.608;2023-02-16T02:05:14;1016.07;;;28.69;66.52
37170;BME280;23062;13.952;100.608;2023-02-16T02:10:05;1016.15;;;28.68;66.49
37170;BME280;23062;13.952;100.608;2023-02-16T02:14:34;1016.22;;;28.74;66.18
37170;BME280;23062;13.952;100.608;2023-02-16T02:18:58;1016.24;;;28.76;66.32
37170;BME280;23062;13.952;100.608;2023-02-16T02:28:14;1016.33;;;28.83;66.01
37170;BME280;23062;13.952;100.608;2023-02-16T02:37:46;1016.55;;;28.90;65.81
37170;BME280;23062;13.952;100.608;2023-02-16T02:42:22;1016.61;;;28.94;65.93
37170;BME280;23062;13.952;100.608;2023-02-16T02:46:42;1016.66;;;28.93;65.90
37170;BME280;23062;13.952;100.608;2023-02-16T02:51:11;1016.67;;;28.94;65.92
37170;BME280;23062;13.952;100.608;2023-02-16T02:55:53;1016.68;;;28.94;65.77
37170;BME280;23062;13.952;100.608;2023-02-16T03:00:42;1016.70;;;28.95;65.64
37170;BME280;23062;13.952;100.608;2023-02-16T03:05:11;1016.74;;;28.96;65.70
37170;BME280;23062;13.952;100.608;2023-02-16T03:09:38;1016.74;;;28.99;65.71
37170;BME280;23062;13.952;100.608;2023-02-16T03:18:55;1016.65;;;29.00;65.37
37170;BME280;23062;13.952;100.608;2023-02-16T03:23:40;1016.66;;;29.03;65.43
37170;BME280;23062;13.952;100.608;2023-02-16T03:28:29;1016.60;;;29.03;65.34
37170;BME280;23062;13.952;100.608;2023-02-16T03:33:14;1016.66;;;29.02;65.49
37170;BME280;23062;13.952;100.608;2023-02-16T03:37:40;1016.70;;;29.00;65.56
37170;BME280;23062;13.952;100.608;2023-02-16T03:42:06;1016.65;;;28.96;65.45
37170;BME280;23062;13.952;100.608;2023-02-16T03:46:32;1016.65;;;28.95;65.79
37170;BME280;23062;13.952;100.608;2023-02-16T03:50:57;1016.63;;;28.96;65.61
37170;BME280;23062;13.952;100.608;2023-02-16T03:55:26;1016.62;;;28.95;65.05
37170;BME280;23062;13.952;100.608;2023-02-16T03:59:52;1016.55;;;28.93;65.39
37170;BME280;23062;13.952;100.608;2023-02-16T04:04:17;1016.54;;;28.89;65.37
37170;BME280;23062;13.952;100.608;2023-02-16T04:08:43;1016.44;;;28.90;64.63
37170;BME280;23062;13.952;100.608;2023-02-16T04:13:15;1016.38;;;28.83;63.70
37170;BME280;23062;13.952;100.608;2023-02-16T04:17:44;1016.41;;;28.88;64.48
37170;BME280;23062;13.952;100.608;2023-02-16T04:22:10;1016.30;;;28.75;63.36
37170;BME280;23062;13.952;100.608;2023-02-16T04:26:36;1016.27;;;28.76;62.86
37170;BME280;23062;13.952;100.608;2023-02-16T04:31:05;1016.18;;;28.81;63.24
37170;BME280;23062;13.952;100.608;2023-02-16T04:35:32;1016.10;;;28.85;62.58
37170;BME280;23062;13.952;100.608;2023-02-16T04:39:58;1015.98;;;28.72;61.16
37170;BME280;23062;13.952;100.608;2023-02-16T04:44:23;1015.93;;;28.75;60.09
37170;BME280;23062;13.952;100.608;2023-02-16T04:48:52;1015.82;;;28.80;61.53
37170;BME280;23062;13.952;100.608;2023-02-16T04:53:18;1015.86;;;28.92;61.77
37170;BME280;23062;13.952;100.608;2023-02-16T04:57:47;1015.76;;;28.89;61.16
37170;BME280;23062;13.952;100.608;2023-02-16T05:02:12;1015.69;;;28.90;61.59
37170;BME280;23062;13.952;100.608;2023-02-16T05:06:38;1015.62;;;28.98;61.71
37170;BME280;23062;13.952;100.608;2023-02-16T05:11:04;1015.54;;;28.92;60.62
37170;BME280;23062;13.952;100.608;2023-02-16T05:15:48;1015.47;;;28.91;59.50
37170;BME280;23062;13.952;100.608;2023-02-16T05:20:14;1015.47;;;28.89;58.56
37170;BME280;23062;13.952;100.608;2023-02-16T05:24:40;1015.36;;;29.00;59.68
37170;BME280;23062;13.952;100.608;2023-02-16T05:29:06;1015.32;;;28.94;59.35
37170;BME280;23062;13.952;100.608;2023-02-16T05:33:32;1015.19;;;28.84;56.23
37170;BME280;23062;13.952;100.608;2023-02-16T05:37:57;1015.14;;;28.80;55.59
37170;BME280;23062;13.952;100.608;2023-02-16T05:42:23;1015.06;;;28.88;56.30
37170;BME280;23062;13.952;100.608;2023-02-16T05:46:51;1014.99;;;28.90;55.44
37170;BME280;23062;13.952;100.608;2023-02-16T05:51:17;1014.90;;;28.94;56.40
37170;BME280;23062;13.952;100.608;2023-02-16T05:55:43;1014.82;;;29.00;56.66
37170;BME280;23062;13.952;100.608;2023-02-16T06:00:10;1014.71;;;29.01;56.67
37170;BME280;23062;13.952;100.608;2023-02-16T06:04:36;1014.57;;;29.01;55.27
37170;BME280;23062;13.952;100.608;2023-02-16T06:09:04;1014.52;;;29.00;54.81
37170;BME280;23062;13.952;100.608;2023-02-16T06:13:30;1014.41;;;29.03;55.24
37170;BME280;23062;13.952;100.608;2023-02-16T06:17:56;1014.34;;;29.09;55.44
37170;BME280;23062;13.952;100.608;2023-02-16T06:22:22;1014.24;;;29.13;55.73
37170;BME280;23062;13.952;100.608;2023-02-16T06:26:47;1014.15;;;29.14;55.21
37170;BME280;23062;13.952;100.608;2023-02-16T06:31:16;1014.13;;;29.16;55.89
37170;BME280;23062;13.952;100.608;2023-02-16T06:35:42;1014.00;;;29.23;55.27
37170;BME280;23062;13.952;100.608;2023-02-16T06:40:12;1014.00;;;29.25;54.75
37170;BME280;23062;13.952;100.608;2023-02-16T06:44:38;1013.90;;;29.30;54.50
37170;BME280;23062;13.952;100.608;2023-02-16T06:49:05;1013.87;;;29.27;55.00
37170;BME280;23062;13.952;100.608;2023-02-16T06:53:31;1013.76;;;29.31;53.89
37170;BME280;23062;13.952;100.608;2023-02-16T06:57:56;1013.63;;;29.33;52.83
37170;BME280;23062;13.952;100.608;2023-02-16T07:02:24;1013.47;;;29.35;53.62
37170;BME280;23062;13.952;100.608;2023-02-16T07:06:50;1013.47;;;29.37;54.13
37170;BME280;23062;13.952;100.608;2023-02-16T07:11:18;1013.35;;;29.35;53.22
37170;BME280;23062;13.952;100.608;2023-02-16T07:15:47;1013.21;;;29.38;52.81
37170;BME280;23062;13.952;100.608;2023-02-16T07:20:12;1013.15;;;29.38;53.52
37170;BME280;23062;13.952;100.608;2023-02-16T07:24:38;1013.01;;;29.39;53.14
37170;BME280;23062;13.952;100.608;2023-02-16T07:29:06;1013.01;;;29.40;53.91
37170;BME280;23062;13.952;100.608;2023-02-16T07:33:37;1012.81;;;29.45;53.88
37170;BME280;23062;13.952;100.608;2023-02-16T07:38:05;1012.83;;;29.46;54.29
37170;BME280;23062;13.952;100.608;2023-02-16T07:42:32;1012.78;;;29.45;53.72
37170;BME280;23062;13.952;100.608;2023-02-16T07:46:57;1012.72;;;29.48;53.58
37170;BME280;23062;13.952;100.608;2023-02-16T07:51:24;1012.64;;;29.50;52.81
37170;BME280;23062;13.952;100.608;2023-02-16T07:55:50;1012.59;;;29.57;53.05
37170;BME280;23062;13.952;100.608;2023-02-16T08:00:16;1012.53;;;29.54;53.14
37170;BME280;23062;13.952;100.608;2023-02-16T08:04:41;1012.44;;;29.55;53.72
37170;BME280;23062;13.952;100.608;2023-02-16T08:09:07;1012.41;;;29.50;53.87
37170;BME280;23062;13.952;100.608;2023-02-16T08:13:33;1012.43;;;29.53;54.00
37170;BME280;23062;13.952;100.608;2023-02-16T08:17:58;1012.35;;;29.54;53.88
37170;BME280;23062;13.952;100.608;2023-02-16T08:22:23;1012.34;;;29.53;53.93
37170;BME280;23062;13.952;100.608;2023-02-16T08:26:53;1012.34;;;29.52;54.52
37170;BME280;23062;13.952;100.608;2023-02-16T08:31:21;1012.33;;;29.53;54.49
37170;BME280;23062;13.952;100.608;2023-02-16T08:35:47;1012.32;;;29.56;55.09
37170;BME280;23062;13.952;100.608;2023-02-16T08:40:12;1012.20;;;29.58;55.03
37170;BME280;23062;13.952;100.608;2023-02-16T08:44:39;1012.16;;;29.58;54.76
37170;BME280;23062;13.952;100.608;2023-02-16T08:49:05;1012.09;;;29.58;54.96
37170;BME280;23062;13.952;100.608;2023-02-16T08:53:34;1012.11;;;29.55;54.80
37170;BME280;23062;13.952;100.608;2023-02-16T08:58:00;1012.14;;;29.57;54.96
37170;BME280;23062;13.952;100.608;2023-02-16T09:02:31;1012.15;;;29.56;55.10
37170;BME280;23062;13.952;100.608;2023-02-16T09:06:58;1012.12;;;29.55;54.81
37170;BME280;23062;13.952;100.608;2023-02-16T09:11:24;1012.16;;;29.59;55.04
37170;BME280;23062;13.952;100.608;2023-02-16T09:15:49;1012.12;;;29.57;54.43
37170;BME280;23062;13.952;100.608;2023-02-16T09:20:16;1012.03;;;29.62;54.50
37170;BME280;23062;13.952;100.608;2023-02-16T09:24:47;1012.11;;;29.60;54.76
37170;BME280;23062;13.952;100.608;2023-02-16T09:29:12;1012.14;;;29.62;54.74
37170;BME280;23062;13.952;100.608;2023-02-16T09:33:38;1012.12;;;29.60;54.45
37170;BME280;23062;13.952;100.608;2023-02-16T09:38:05;1012.12;;;29.64;54.69
37170;BME280;23062;13.952;100.608;2023-02-16T09:51:41;1012.19;;;29.68;54.58
37170;BME280;23062;13.952;100.608;2023-02-16T09:56:26;1012.23;;;29.71;54.68
37170;BME280;23062;13.952;100.608;2023-02-16T10:09:56;1012.23;;;29.70;55.72
37170;BME280;23062;13.952;100.608;2023-02-16T10:14:41;1012.29;;;29.70;55.74
37170;BME280;23062;13.952;100.608;2023-02-16T10:19:13;1012.28;;;29.67;55.86
37170;BME280;23062;13.952;100.608;2023-02-16T10:23:47;1012.34;;;29.67;55.65
37170;BME280;23062;13.952;100.608;2023-02-16T10:33:08;1012.50;;;29.69;55.80
37170;BME280;23062;13.952;100.608;2023-02-16T10:37:48;1012.42;;;29.71;55.92
37170;BME280;23062;13.952;100.608;2023-02-16T10:46:55;1012.48;;;29.69;55.30
37170;BME280;23062;13.952;100.608;2023-02-16T10:51:29;1012.52;;;29.69;55.55
37170;BME280;23062;13.952;100.608;2023-02-16T10:55:57;1012.59;;;29.67;55.66
37170;BME280;23062;13.952;100.608;2023-02-16T11:00:32;1012.64;;;29.69;55.90
37170;BME280;23062;13.952;100.608;2023-02-16T11:04:53;1012.64;;;29.70;56.03
37170;BME280;23062;13.952;100.608;2023-02-16T11:09:26;1012.67;;;29.69;55.80
37170;BME280;23062;13.952;100.608;2023-02-16T11:13:59;1012.70;;;29.66;55.84
37170;BME280;23062;13.952;100.608;2023-02-16T11:18:31;1012.68;;;29.63;55.43
37170;BME280;23062;13.952;100.608;2023-02-16T11:22:52;1012.76;;;29.61;55.54
37170;BME280;23062;13.952;100.608;2023-02-16T11:27:22;1012.75;;;29.61;54.89
37170;BME280;23062;13.952;100.608;2023-02-16T11:31:47;1012.76;;;29.58;54.77
37170;BME280;23062;13.952;100.608;2023-02-16T11:40:50;1012.84;;;29.56;54.49
37170;BME280;23062;13.952;100.608;2023-02-16T11:45:28;1012.88;;;29.56;55.09
37170;BME280;23062;13.952;100.608;2023-02-16T11:50:22;1012.94;;;29.56;55.56
37170;BME280;23062;13.952;100.608;2023-02-16T11:54:56;1012.98;;;29.56;56.21
37170;BME280;23062;13.952;100.608;2023-02-16T11:59:21;1012.97;;;29.58;56.88
37170;BME280;23062;13.952;100.608;2023-02-16T12:12:58;1013.15;;;29.51;57.66
37170;BME280;23062;13.952;100.608;2023-02-16T12:22:20;1013.24;;;29.59;58.04
37170;BME280;23062;13.952;100.608;2023-02-16T12:26:49;1013.27;;;29.65;58.24
37170;BME280;23062;13.952;100.608;2023-02-16T12:36:27;1013.37;;;29.72;58.31
37170;BME280;23062;13.952;100.608;2023-02-16T12:41:09;1013.41;;;29.58;59.24
37170;BME280;23062;13.952;100.608;2023-02-16T12:45:43;1013.43;;;29.55;59.80
37170;BME280;23062;13.952;100.608;2023-02-16T12:54:48;1013.51;;;29.55;60.29
37170;BME280;23062;13.952;100.608;2023-02-16T13:08:42;1013.63;;;29.62;60.65
37170;BME280;23062;13.952;100.608;2023-02-16T13:13:09;1013.69;;;29.57;60.78
37170;BME280;23062;13.952;100.608;2023-02-16T13:17:48;1013.77;;;29.57;60.81
37170;BME280;23062;13.952;100.608;2023-02-16T13:22:33;1013.89;;;29.52;60.75
37170;BME280;23062;13.952;100.608;2023-02-16T13:45:47;1014.25;;;29.46;60.41
37170;BME280;23062;13.952;100.608;2023-02-16T13:50:24;1014.31;;;29.60;60.02
37170;BME280;23062;13.952;100.608;2023-02-16T13:54:57;1014.33;;;29.72;59.56
37170;BME280;23062;13.952;100.608;2023-02-16T14:03:55;1014.37;;;29.76;59.39
37170;BME280;23062;13.952;100.608;2023-02-16T14:08:27;1014.36;;;29.76;59.37
37170;BME280;23062;13.952;100.608;2023-02-16T14:12:56;1014.39;;;29.74;59.34
37170;BME280;23062;13.952;100.608;2023-02-16T14:17:22;1014.48;;;29.75;59.33
37170;BME280;23062;13.952;100.608;2023-02-16T14:21:51;1014.50;;;29.74;59.33
37170;BME280;23062;13.952;100.608;2023-02-16T14:26:19;1014.53;;;29.73;59.31
37170;BME280;23062;13.952;100.608;2023-02-16T14:30:51;1014.55;;;29.74;59.35
37170;BME280;23062;13.952;100.608;2023-02-16T14:35:32;1014.60;;;29.74;59.37
37170;BME280;23062;13.952;100.608;2023-02-16T14:40:02;1014.61;;;29.73;59.53
37170;BME280;23062;13.952;100.608;2023-02-16T14:44:37;1014.69;;;29.73;59.50
37170;BME280;23062;13.952;100.608;2023-02-16T15:03:22;1014.72;;;29.73;59.56
37170;BME280;23062;13.952;100.608;2023-02-16T15:07:50;1014.74;;;29.73;59.67
37170;BME280;23062;13.952;100.608;2023-02-16T15:12:16;1014.77;;;29.72;59.68
37170;BME280;23062;13.952;100.608;2023-02-16T15:16:51;1014.74;;;29.71;59.67
37170;BME280;23062;13.952;100.608;2023-02-16T15:21:21;1014.79;;;29.70;59.70
37170;BME280;23062;13.952;100.608;2023-02-16T15:30:24;1014.90;;;29.71;59.71
37170;BME280;23062;13.952;100.608;2023-02-16T15:34:51;1014.97;;;29.71;59.61
37170;BME280;23062;13.952;100.608;2023-02-16T15:39:25;1014.99;;;29.70;59.82
37170;BME280;23062;13.952;100.608;2023-02-16T15:43:53;1015.00;;;29.69;59.77
37170;BME280;23062;13.952;100.608;2023-02-16T15:52:51;1015.03;;;29.69;59.72
37170;BME280;23062;13.952;100.608;2023-02-16T15:57:31;1015.04;;;29.68;59.84
37170;BME280;23062;13.952;100.608;2023-02-16T16:02:00;1015.07;;;29.68;59.80
37170;BME280;23062;13.952;100.608;2023-02-16T16:06:35;1015.05;;;29.68;59.70
37170;BME280;23062;13.952;100.608;2023-02-16T16:10:58;1015.01;;;29.67;59.77
37170;BME280;23062;13.952;100.608;2023-02-16T16:15:25;1014.98;;;29.67;59.81
37170;BME280;23062;13.952;100.608;2023-02-16T16:19:52;1014.95;;;29.65;59.95
37170;BME280;23062;13.952;100.608;2023-02-16T16:24:26;1014.94;;;29.64;59.91
37170;BME280;23062;13.952;100.608;2023-02-16T16:28:46;1014.87;;;29.64;59.92
37170;BME280;23062;13.952;100.608;2023-02-16T16:33:14;1014.91;;;29.64;60.23
37170;BME280;23062;13.952;100.608;2023-02-16T16:37:40;1014.92;;;29.63;60.51
37170;BME280;23062;13.952;100.608;2023-02-16T16:46:44;1014.94;;;29.62;60.90
37170;BME280;23062;13.952;100.608;2023-02-16T16:51:18;1014.97;;;29.61;60.92
37170;BME280;23062;13.952;100.608;2023-02-16T16:55:44;1014.92;;;29.60;60.53
37170;BME280;23062;13.952;100.608;2023-02-16T17:00:14;1014.90;;;29.60;60.82
37170;BME280;23062;13.952;100.608;2023-02-16T17:04:40;1014.88;;;29.59;60.65
37170;BME280;23062;13.952;100.608;2023-02-16T17:09:07;1014.92;;;29.59;60.88
37170;BME280;23062;13.952;100.608;2023-02-16T17:13:33;1014.94;;;29.59;60.84
37170;BME280;23062;13.952;100.608;2023-02-16T17:17:59;1014.89;;;29.58;60.97
37170;BME280;23062;13.952;100.608;2023-02-16T17:22:25;1014.83;;;29.56;60.76
37170;BME280;23062;13.952;100.608;2023-02-16T17:26:51;1014.74;;;29.56;61.06
37170;BME280;23062;13.952;100.608;2023-02-16T17:31:16;1014.72;;;29.56;61.17
37170;BME280;23062;13.952;100.608;2023-02-16T17:35:43;1014.68;;;29.55;61.12
37170;BME280;23062;13.952;100.608;2023-02-16T17:40:13;1014.68;;;29.56;61.22
37170;BME280;23062;13.952;100.608;2023-02-16T17:44:40;1014.65;;;29.55;61.18
37170;BME280;23062;13.952;100.608;2023-02-16T17:49:08;1014.57;;;29.54;60.98
37170;BME280;23062;13.952;100.608;2023-02-16T17:53:32;1014.47;;;29.53;61.11
37170;BME280;23062;13.952;100.608;2023-02-16T17:57:58;1014.47;;;29.52;60.94
37170;BME280;23062;13.952;100.608;2023-02-16T18:02:25;1014.43;;;29.52;61.13
37170;BME280;23062;13.952;100.608;2023-02-16T18:06:50;1014.40;;;29.52;61.08
37170;BME280;23062;13.952;100.608;2023-02-16T18:11:16;1014.31;;;29.51;61.13
37170;BME280;23062;13.952;100.608;2023-02-16T18:15:44;1014.30;;;29.50;61.06
37170;BME280;23062;13.952;100.608;2023-02-16T18:20:13;1014.26;;;29.51;61.05
37170;BME280;23062;13.952;100.608;2023-02-16T18:24:39;1014.26;;;29.49;61.12
37170;BME280;23062;13.952;100.608;2023-02-16T18:29:06;1014.17;;;29.49;61.03
37170;BME280;23062;13.952;100.608;2023-02-16T18:33:35;1014.18;;;29.49;61.05
37170;BME280;23062;13.952;100.608;2023-02-16T18:38:01;1014.09;;;29.48;60.94
37170;BME280;23062;13.952;100.608;2023-02-16T18:42:26;1014.04;;;29.47;61.06
37170;BME280;23062;13.952;100.608;2023-02-16T18:46:52;1014.00;;;29.47;61.01
37170;BME280;23062;13.952;100.608;2023-02-16T18:51:17;1013.93;;;29.46;60.99
37170;BME280;23062;13.952;100.608;2023-02-16T18:55:45;1013.86;;;29.46;60.98
37170;BME280;23062;13.952;100.608;2023-02-16T19:00:13;1013.77;;;29.44;60.90
37170;BME280;23062;13.952;100.608;2023-02-16T19:04:39;1013.70;;;29.44;60.98
37170;BME280;23062;13.952;100.608;2023-02-16T19:09:05;1013.62;;;29.44;60.99
37170;BME280;23062;13.952;100.608;2023-02-16T19:13:31;1013.57;;;29.43;61.00
37170;BME280;23062;13.952;100.608;2023-02-16T19:17:56;1013.48;;;29.43;60.97
37170;BME280;23062;13.952;100.608;2023-02-16T19:22:22;1013.42;;;29.42;61.02
37170;BME280;23062;13.952;100.608;2023-02-16T19:26:49;1013.39;;;29.41;61.00
37170;BME280;23062;13.952;100.608;2023-02-16T19:31:22;1013.43;;;29.42;61.00
37170;BME280;23062;13.952;100.608;2023-02-16T19:35:48;1013.37;;;29.41;61.01
37170;BME280;23062;13.952;100.608;2023-02-16T19:40:14;1013.29;;;29.40;61.00
37170;BME280;23062;13.952;100.608;2023-02-16T19:44:39;1013.24;;;29.40;60.99
37170;BME280;23062;13.952;100.608;2023-02-16T19:49:05;1013.18;;;29.39;61.00
37170;BME280;23062;13.952;100.608;2023-02-16T19:53:32;1013.16;;;29.39;61.03
37170;BME280;23062;13.952;100.608;2023-02-16T19:58:00;1013.10;;;29.38;61.05
37170;BME280;23062;13.952;100.608;2023-02-16T20:02:26;1013.08;;;29.37;61.04
37170;BME280;23062;13.952;100.608;2023-02-16T20:06:52;1013.03;;;29.37;61.06
37170;BME280;23062;13.952;100.608;2023-02-16T20:11:22;1012.99;;;29.37;61.04
37170;BME280;23062;13.952;100.608;2023-02-16T20:15:48;1012.98;;;29.36;61.07
37170;BME280;23062;13.952;100.608;2023-02-16T20:20:16;1012.95;;;29.35;61.03
37170;BME280;23062;13.952;100.608;2023-02-16T20:24:42;1012.91;;;29.34;61.04
37170;BME280;23062;13.952;100.608;2023-02-16T20:29:09;1012.92;;;29.35;61.02
37170;BME280;23062;13.952;100.608;2023-02-16T20:33:38;1012.91;;;29.34;60.99
37170;BME280;23062;13.952;100.608;2023-02-16T20:38:04;1012.93;;;29.33;60.96
37170;BME280;23062;13.952;100.608;2023-02-16T20:42:33;1012.87;;;29.31;60.90
37170;BME280;23062;13.952;100.608;2023-02-16T20:46:58;1012.89;;;29.32;60.85
37170;BME280;23062;13.952;100.608;2023-02-16T20:51:24;1012.90;;;29.31;60.75
37170;BME280;23062;13.952;100.608;2023-02-16T20:55:58;1012.88;;;29.30;60.65
37170;BME280;23062;13.952;100.608;2023-02-16T21:00:24;1012.87;;;29.29;60.52
37170;BME280;23062;13.952;100.608;2023-02-16T21:04:49;1012.88;;;29.28;59.93
37170;BME280;23062;13.952;100.608;2023-02-16T21:09:15;1012.92;;;29.26;59.37
37170;BME280;23062;13.952;100.608;2023-02-16T21:13:41;1012.89;;;29.26;59.58
37170;BME280;23062;13.952;100.608;2023-02-16T21:18:07;1012.86;;;29.25;58.76
37170;BME280;23062;13.952;100.608;2023-02-16T21:22:33;1012.84;;;29.21;58.30
37170;BME280;23062;13.952;100.608;2023-02-16T21:26:59;1012.73;;;29.13;56.07
37170;BME280;23062;13.952;100.608;2023-02-16T21:31:25;1012.65;;;28.97;54.97
37170;BME280;23062;13.952;100.608;2023-02-16T21:35:49;1012.64;;;28.70;57.61
37170;BME280;23062;13.952;100.608;2023-02-16T21:40:15;1012.65;;;28.69;57.70
37170;BME280;23062;13.952;100.608;2023-02-16T21:44:58;1012.63;;;28.67;57.46
37170;BME280;23062;13.952;100.608;2023-02-16T21:49:42;1012.69;;;28.67;57.18
37170;BME280;23062;13.952;100.608;2023-02-16T21:54:16;1012.73;;;28.66;56.99
37170;BME280;23062;13.952;100.608;2023-02-16T21:58:36;1012.82;;;28.65;56.81
37170;BME280;23062;13.952;100.608;2023-02-16T22:03:02;1012.90;;;28.64;56.52
37170;BME280;23062;13.952;100.608;2023-02-16T22:07:28;1012.87;;;28.63;56.33
37170;BME280;23062;13.952;100.608;2023-02-16T22:11:54;1012.93;;;28.60;56.12
37170;BME280;23062;13.952;100.608;2023-02-16T22:16:22;1012.91;;;28.42;55.88
37170;BME280;23062;13.952;100.608;2023-02-16T22:20:47;1012.98;;;28.38;55.69
37170;BME280;23062;13.952;100.608;2023-02-16T22:25:13;1013.06;;;28.34;55.56
37170;BME280;23062;13.952;100.608;2023-02-16T22:29:38;1013.11;;;28.29;55.42
37170;BME280;23062;13.952;100.608;2023-02-16T22:34:10;1013.11;;;28.28;54.91
37170;BME280;23062;13.952;100.608;2023-02-16T22:38:34;1013.11;;;28.24;54.72
37170;BME280;23062;13.952;100.608;2023-02-16T22:42:59;1013.16;;;28.24;54.73
37170;BME280;23062;13.952;100.608;2023-02-16T22:47:24;1013.11;;;28.19;54.68
37170;BME280;23062;13.952;100.608;2023-02-16T22:51:50;1013.13;;;28.15;54.75
37170;BME280;23062;13.952;100.608;2023-02-16T22:56:17;1013.19;;;28.19;54.35
37170;BME280;23062;13.952;100.608;2023-02-16T23:00:44;1013.23;;;28.16;54.24
37170;BME280;23062;13.952;100.608;2023-02-16T23:05:10;1013.29;;;28.14;54.13
37170;BME280;23062;13.952;100.608;2023-02-16T23:09:36;1013.31;;;28.20;53.95
37170;BME280;23062;13.952;100.608;2023-02-16T23:14:03;1013.41;;;28.09;53.99
37170;BME280;23062;13.952;100.608;2023-02-16T23:18:29;1013.47;;;28.04;54.05
37170;BME280;23062;13.952;100.608;2023-02-16T23:22:54;1013.51;;;28.07;53.87
37170;BME280;23062;13.952;100.608;2023-02-16T23:27:23;1013.53;;;28.05;54.29
37170;BME280;23062;13.952;100.608;2023-02-16T23:31:48;1013.59;;;27.98;53.60
37170;BME280;23062;13.952;100.608;2023-02-16T23:36:13;1013.64;;;27.91;53.51
37170;BME280;23062;13.952;100.608;2023-02-16T23:40:39;1013.71;;;27.90;53.68
37170;BME280;23062;13.952;100.608;2023-02-16T23:45:04;1013.84;;;27.93;53.96
37170;BME280;23062;13.952;100.608;2023-02-16T23:49:30;1013.92;;;28.11;54.08
37170;BME280;23062;13.952;100.608;2023-02-16T23:53:55;1013.98;;;28.18;53.81
37170;BME280;23062;13.952;100.608;2023-02-16T23:58:21;1014.03;;;28.17;53.75
